ベルリン/テーゲル の空港の天気 - METARとTAF

ベルリン・テーゲル国際空港 ( EDDT / TXL ) - ドイツ ベルリン
飛行場実況気象(Metar)
観測時間10/23 06:20 CEST (10/23 04:20 UTC)
風向・風速西南西 7m/s
視程10km以上
天気現象
なし
気温7℃
湿度81%
気圧1019hPa
METAREDDT 230420Z 24014KT CAVOK 07/04 Q1019 BECMG 24015G25KT
過去の天気等 Google飛行場航空写真 Wunderground天気予報

過去48時間のMETAR

飛行場予報(TAF)
発表時間: 10/23 01:00 CEST (10/22 23:00 UTC)
予報対象時間: 23日2時 CEST ~ 24日2時 CEST
風向・風速西 3m/s
視程10km以上
なし
23日3時 CEST ~ 23日6時 CEST に徐々に
風向・風速西南西 5m/s
23日6時 CEST ~ 23日9時 CEST に徐々に
風向・風速西南西 8m/s 瞬間風速 13m/s
23日11時 CEST ~ 23日20時 CEST に一時的に
風向・風速西 10m/s 瞬間風速 18m/s
全天の8割程度の雲 雲底高度 370m
23日20時 CEST ~ 23日23時 CEST に徐々に
風向・風速西北西 8m/s 瞬間風速 15m/s
TAF EDDT 222300Z 2300/2324 26005KT CAVOK
BECMG 2301/2304 24010KT
BECMG 2304/2307 24015G25KT
TEMPO 2309/2318 27020G35KT BKN012
BECMG 2318/2321 30015G30KT